createdAt,value
2022-08-01T00:00:13.801Z,99.90
2022-08-01T00:02:42.889Z,99.90
2022-08-01T00:05:13.223Z,99.90
2022-08-01T00:07:43.721Z,99.90
2022-08-01T00:10:14.947Z,99.90
2022-08-01T00:12:44.550Z,99.90
2022-08-01T00:15:15.711Z,99.90
2022-08-01T00:17:45.193Z,99.90
2022-08-01T00:20:16.903Z,99.90
2022-08-01T00:22:47.000Z,99.90
2022-08-01T00:25:15.733Z,99.90
2022-08-01T00:27:44.657Z,99.90
2022-08-01T00:30:14.922Z,99.90
2022-08-01T00:32:44.343Z,99.90
2022-08-01T00:35:14.451Z,99.90
2022-08-01T00:37:43.074Z,99.90
2022-08-01T00:40:13.486Z,99.90
2022-08-01T00:42:43.802Z,99.90
2022-08-01T00:45:13.673Z,99.90
2022-08-01T00:47:42.293Z,99.90
2022-08-01T00:50:12.666Z,99.90
2022-08-01T00:52:43.023Z,99.90
2022-08-01T00:55:22.536Z,99.90
2022-08-01T00:58:02.622Z,99.90
2022-08-01T01:00:54.029Z,99.90
2022-08-01T01:03:57.494Z,99.90
2022-08-01T01:06:28.942Z,99.90
2022-08-01T01:09:12.168Z,99.90
2022-08-01T01:11:54.213Z,99.90
2022-08-01T01:14:34.096Z,99.90
2022-08-01T01:17:04.907Z,99.90
2022-08-01T01:19:38.790Z,99.90
2022-08-01T01:22:26.594Z,99.90
2022-08-01T01:25:08.391Z,99.90
2022-08-01T01:27:47.728Z,99.90
2022-08-01T01:30:18.902Z,99.90
2022-08-01T01:32:52.504Z,99.90
2022-08-01T01:35:25.479Z,99.90
2022-08-01T01:38:00.576Z,99.90
2022-08-01T01:40:30.756Z,99.90
2022-08-01T01:43:00.270Z,99.90
2022-08-01T01:45:32.840Z,99.90
2022-08-01T01:48:03.526Z,99.90
2022-08-01T01:50:33.268Z,99.90
2022-08-01T01:53:04.022Z,99.90
2022-08-01T01:55:34.316Z,99.90
2022-08-01T01:58:18.637Z,99.90
2022-08-01T02:00:51.197Z,99.90
2022-08-01T02:03:21.734Z,99.90
2022-08-01T02:05:50.991Z,99.90
2022-08-01T02:08:20.420Z,99.90
2022-08-01T02:11:03.622Z,99.90
2022-08-01T02:13:34.254Z,99.90
2022-08-01T02:16:07.049Z,99.90
2022-08-01T02:18:35.820Z,99.90
2022-08-01T02:21:07.612Z,99.90
2022-08-01T02:23:38.934Z,99.90
2022-08-01T02:26:12.310Z,99.90
2022-08-01T02:28:48.544Z,99.90
2022-08-01T02:31:23.841Z,99.90
2022-08-01T02:33:59.465Z,99.90
2022-08-01T02:36:31.797Z,99.90
2022-08-01T02:39:04.056Z,99.90
2022-08-01T02:41:34.041Z,99.90
2022-08-01T02:44:08.020Z,99.90
2022-08-01T02:46:41.034Z,99.90
2022-08-01T02:49:12.680Z,99.90
2022-08-01T02:51:43.215Z,99.90
2022-08-01T02:54:13.698Z,99.90
2022-08-01T02:56:44.008Z,99.90
2022-08-01T02:59:18.145Z,99.90
2022-08-01T03:01:55.092Z,99.90
2022-08-01T03:04:26.464Z,99.90
2022-08-01T03:06:59.609Z,99.90
2022-08-01T03:09:29.970Z,99.90
2022-08-01T03:12:03.756Z,99.90
2022-08-01T03:14:35.139Z,99.90
2022-08-01T03:17:07.516Z,99.90
2022-08-01T03:19:38.771Z,99.90
2022-08-01T03:22:10.399Z,99.90
2022-08-01T03:24:41.704Z,99.90
2022-08-01T03:27:12.813Z,99.90
2022-08-01T03:29:44.250Z,99.90
2022-08-01T03:32:16.458Z,99.90
2022-08-01T03:34:45.328Z,99.90
2022-08-01T03:37:20.302Z,99.90
2022-08-01T03:39:52.970Z,99.90
2022-08-01T03:42:26.730Z,99.90
2022-08-01T03:44:58.088Z,99.90
2022-08-01T03:47:33.313Z,99.90
2022-08-01T03:50:09.345Z,99.90
2022-08-01T03:52:43.219Z,99.90
2022-08-01T03:55:14.036Z,99.90
2022-08-01T03:57:46.719Z,99.90
2022-08-01T04:00:19.754Z,99.90
2022-08-01T04:02:50.622Z,99.90
2022-08-01T04:05:19.934Z,99.90
2022-08-01T04:07:51.598Z,99.90
2022-08-01T04:10:20.359Z,99.90
2022-08-01T04:12:49.216Z,99.90
2022-08-01T04:15:17.851Z,99.90
2022-08-01T04:17:46.907Z,99.90
2022-08-01T04:20:18.951Z,99.90
2022-08-01T04:22:47.803Z,99.90
2022-08-01T04:25:27.404Z,99.90
2022-08-01T04:27:56.994Z,99.90
2022-08-01T04:30:29.147Z,99.90
2022-08-01T04:33:00.534Z,99.90
2022-08-01T04:36:03.566Z,99.90
2022-08-01T04:38:24.275Z,99.90
2022-08-01T04:40:55.061Z,99.90
2022-08-01T04:43:24.119Z,99.90
2022-08-01T04:45:54.073Z,99.90
2022-08-01T04:48:25.524Z,99.90
2022-08-01T04:50:56.313Z,99.90
2022-08-01T04:53:24.955Z,99.90
2022-08-01T04:55:54.650Z,99.90
2022-08-01T04:58:23.764Z,99.90
2022-08-01T05:00:52.824Z,99.90
2022-08-01T05:03:22.138Z,99.90
2022-08-01T05:05:50.752Z,99.90
2022-08-01T05:08:20.734Z,99.90
2022-08-01T05:10:49.281Z,99.90
2022-08-01T05:13:18.073Z,99.90
2022-08-01T05:15:46.846Z,99.90
2022-08-01T05:18:15.727Z,99.90
2022-08-01T05:20:44.369Z,99.90
2022-08-01T05:23:19.271Z,99.90
2022-08-01T05:25:59.899Z,99.90
2022-08-01T05:28:28.871Z,99.90
2022-08-01T05:30:57.749Z,99.90
2022-08-01T05:33:26.652Z,99.90
2022-08-01T05:35:55.614Z,99.90
2022-08-01T05:38:24.331Z,99.90
2022-08-01T05:40:53.118Z,99.90
2022-08-01T05:43:28.527Z,99.90
2022-08-01T05:45:59.607Z,99.90
2022-08-01T05:48:28.713Z,99.90
2022-08-01T05:50:58.884Z,99.90
2022-08-01T05:53:28.019Z,99.90
2022-08-01T05:55:57.299Z,99.90
2022-08-01T05:58:27.992Z,99.90
2022-08-01T06:00:57.329Z,99.90
2022-08-01T06:03:27.257Z,99.90
2022-08-01T06:05:55.910Z,99.90
2022-08-01T06:08:25.254Z,99.90
2022-08-01T06:10:55.499Z,99.90
2022-08-01T06:13:24.734Z,99.90
2022-08-01T06:15:55.295Z,99.90
2022-08-01T06:18:25.287Z,99.90
2022-08-01T06:20:55.527Z,99.90
2022-08-01T06:23:32.699Z,99.90
2022-08-01T06:26:02.329Z,99.90
2022-08-01T06:28:32.667Z,99.90
2022-08-01T06:31:03.847Z,99.90
2022-08-01T06:33:33.933Z,99.90
2022-08-01T06:36:06.091Z,99.90
2022-08-01T06:38:35.773Z,99.90
2022-08-01T06:41:05.172Z,99.90
2022-08-01T06:43:35.826Z,99.90
2022-08-01T06:46:09.951Z,99.90
2022-08-01T06:48:41.213Z,99.90
2022-08-01T06:51:15.167Z,99.90
2022-08-01T06:53:45.284Z,99.90
2022-08-01T06:56:17.196Z,99.90
2022-08-01T06:58:46.818Z,99.90
2022-08-01T07:01:18.051Z,99.80
2022-08-01T07:03:52.805Z,98.80
2022-08-01T07:06:24.956Z,98.50
2022-08-01T07:08:55.449Z,98.20
2022-08-01T07:11:26.977Z,97.20
2022-08-01T07:13:56.451Z,96.20
2022-08-01T07:16:27.469Z,96.70
2022-08-01T07:18:56.984Z,95.60
2022-08-01T07:21:38.850Z,96.00
2022-08-01T07:24:13.532Z,95.60
2022-08-01T07:26:54.202Z,95.40
2022-08-01T07:29:28.181Z,96.20
2022-08-01T07:32:00.624Z,95.20
2022-08-01T07:34:30.071Z,93.90
2022-08-01T07:36:59.249Z,93.20
2022-08-01T07:39:30.491Z,94.00
2022-08-01T07:42:07.600Z,94.00
2022-08-01T07:44:40.566Z,94.20
2022-08-01T07:47:15.913Z,94.90
2022-08-01T07:49:51.442Z,94.80
2022-08-01T07:52:25.554Z,94.60
2022-08-01T07:54:59.589Z,94.80
2022-08-01T07:57:32.550Z,94.90
2022-08-01T08:00:10.235Z,95.00
2022-08-01T08:02:45.728Z,95.00
2022-08-01T08:05:15.596Z,94.30
2022-08-01T08:08:09.073Z,93.40
2022-08-01T08:10:41.311Z,92.80
2022-08-01T08:13:12.346Z,92.70
2022-08-01T08:15:44.688Z,93.70
2022-08-01T08:18:21.963Z,93.90
2022-08-01T08:20:52.012Z,92.80
2022-08-01T08:23:42.464Z,92.00
2022-08-01T08:26:14.739Z,90.10
2022-08-01T08:28:45.537Z,89.80
2022-08-01T08:31:25.695Z,91.20
2022-08-01T08:34:07.252Z,92.70
2022-08-01T08:36:47.725Z,93.90
2022-08-01T08:39:20.006Z,94.20
2022-08-01T08:41:50.192Z,93.90
2022-08-01T08:44:22.162Z,93.00
2022-08-01T08:46:54.051Z,91.90
2022-08-01T08:49:35.649Z,91.60
2022-08-01T08:52:10.745Z,90.80
2022-08-01T08:54:45.097Z,89.30
2022-08-01T08:57:16.467Z,89.60
2022-08-01T08:59:47.285Z,88.10
2022-08-01T09:02:16.892Z,87.10
2022-08-01T09:04:49.352Z,87.40
2022-08-01T09:07:18.620Z,88.30
2022-08-01T09:09:50.234Z,88.60
2022-08-01T09:12:21.887Z,87.70
2022-08-01T09:14:55.739Z,87.30
2022-08-01T09:17:25.949Z,86.20
2022-08-01T09:19:59.002Z,86.60
2022-08-01T09:22:28.295Z,87.00
2022-08-01T09:25:03.013Z,85.50
2022-08-01T09:27:32.953Z,85.40
2022-08-01T09:30:12.995Z,84.30
2022-08-01T09:32:59.612Z,84.50
2022-08-01T09:35:36.274Z,84.90
2022-08-01T09:38:20.590Z,86.00
2022-08-01T09:40:53.565Z,84.60
2022-08-01T09:43:26.224Z,85.20
2022-08-01T09:45:58.104Z,86.30
2022-08-01T09:48:29.914Z,86.40
2022-08-01T09:51:07.388Z,86.80
2022-08-01T09:53:52.655Z,86.80
2022-08-01T09:56:23.745Z,86.20
2022-08-01T09:58:59.411Z,85.90
2022-08-01T10:01:36.569Z,83.50
2022-08-01T10:04:12.488Z,79.20
2022-08-01T10:06:46.991Z,77.90
2022-08-01T10:09:16.829Z,78.20
2022-08-01T10:11:47.891Z,78.20
2022-08-01T10:14:21.907Z,78.60
2022-08-01T10:16:56.682Z,77.60
2022-08-01T10:19:34.188Z,75.90
2022-08-01T10:22:07.330Z,73.50
2022-08-01T10:24:40.531Z,73.80
2022-08-01T10:27:12.442Z,72.70
2022-08-01T10:30:05.922Z,71.90
2022-08-01T10:32:39.652Z,71.30
2022-08-01T10:35:15.067Z,72.10
2022-08-01T10:37:52.908Z,72.40
2022-08-01T10:40:31.286Z,71.90
2022-08-01T10:43:01.775Z,70.60
2022-08-01T10:45:34.842Z,70.80
2022-08-01T10:48:13.645Z,71.10
2022-08-01T10:50:48.809Z,71.00
2022-08-01T10:53:31.716Z,72.80
2022-08-01T10:56:13.194Z,74.30
2022-08-01T10:59:06.747Z,76.00
2022-08-01T11:01:44.701Z,76.00
2022-08-01T11:04:24.977Z,76.20
2022-08-01T11:07:10.145Z,74.30
2022-08-01T11:09:51.929Z,73.20
2022-08-01T11:12:24.626Z,76.50
2022-08-01T11:15:33.183Z,77.70
2022-08-01T11:18:05.791Z,79.40
2022-08-01T11:20:42.464Z,81.50
2022-08-01T11:23:24.743Z,83.30
2022-08-01T11:26:12.806Z,83.50
2022-08-01T11:29:10.806Z,84.10
2022-08-01T11:31:37.237Z,84.10
2022-08-01T11:34:22.275Z,84.30
2022-08-01T11:37:19.671Z,83.70
2022-08-01T11:40:18.818Z,83.40
2022-08-01T11:42:50.121Z,78.90
2022-08-01T11:45:20.072Z,74.90
2022-08-01T11:47:52.847Z,73.50
2022-08-01T11:50:39.009Z,71.60
2022-08-01T11:53:11.288Z,71.30
2022-08-01T11:55:51.385Z,70.10
2022-08-01T11:58:29.348Z,69.30
2022-08-01T12:01:00.901Z,69.70
2022-08-01T12:03:34.452Z,71.10
2022-08-01T12:06:04.044Z,71.60
2022-08-01T12:08:36.001Z,74.20
2022-08-01T12:11:07.290Z,75.60
2022-08-01T12:13:45.929Z,74.40
2022-08-01T12:16:15.790Z,75.00
2022-08-01T12:18:46.561Z,73.40
2022-08-01T12:21:15.296Z,71.80
2022-08-01T12:23:44.029Z,70.40
2022-08-01T12:26:28.418Z,69.50
2022-08-01T12:29:02.403Z,68.10
2022-08-01T12:31:35.142Z,68.40
2022-08-01T12:34:29.095Z,68.30
2022-08-01T12:36:59.329Z,70.50
2022-08-01T12:39:34.761Z,70.10
2022-08-01T12:42:04.090Z,69.60
2022-08-01T12:44:34.729Z,69.60
2022-08-01T12:47:06.877Z,72.00
2022-08-01T12:49:39.107Z,72.80
2022-08-01T12:52:13.201Z,71.90
2022-08-01T12:55:13.319Z,71.50
2022-08-01T12:57:45.734Z,71.60
2022-08-01T13:00:22.740Z,73.70
2022-08-01T13:02:53.371Z,74.30
2022-08-01T13:05:27.115Z,75.70
2022-08-01T13:07:56.496Z,76.30
2022-08-01T13:10:31.106Z,76.10
2022-08-01T13:13:00.868Z,75.70
2022-08-01T13:15:36.157Z,74.10
2022-08-01T13:18:35.584Z,71.80
2022-08-01T13:21:12.127Z,68.50
2022-08-01T13:24:01.522Z,67.70
2022-08-01T13:26:41.872Z,68.90
2022-08-01T13:29:12.471Z,69.60
2022-08-01T13:31:43.601Z,70.80
2022-08-01T13:34:13.061Z,71.20
2022-08-01T13:36:48.569Z,69.90
2022-08-01T13:39:38.429Z,70.40
2022-08-01T13:42:07.988Z,70.50
2022-08-01T13:44:37.113Z,73.00
2022-08-01T13:47:15.221Z,73.50
2022-08-01T13:49:45.863Z,74.30
2022-08-01T13:52:14.625Z,74.50
2022-08-01T13:54:43.262Z,74.80
2022-08-01T13:57:12.171Z,76.30
2022-08-01T13:59:41.138Z,78.10
2022-08-01T14:02:11.345Z,78.10
2022-08-01T14:04:40.233Z,77.20
2022-08-01T14:07:14.393Z,77.50
2022-08-01T14:09:57.769Z,77.40
2022-08-01T14:12:33.966Z,77.80
2022-08-01T14:15:03.200Z,77.70
2022-08-01T14:17:37.737Z,77.00
2022-08-01T14:20:07.671Z,76.60
2022-08-01T14:22:36.557Z,76.50
2022-08-01T14:25:05.635Z,77.60
2022-08-01T14:27:37.426Z,77.30
2022-08-01T14:30:07.483Z,77.50
2022-08-01T14:32:37.593Z,76.00
2022-08-01T14:35:08.816Z,75.30
2022-08-01T14:37:38.862Z,74.50
2022-08-01T14:40:10.639Z,74.60
2022-08-01T14:42:41.092Z,74.50
2022-08-01T14:45:11.361Z,73.90
2022-08-01T14:47:43.716Z,73.30
2022-08-01T14:50:14.956Z,75.50
2022-08-01T14:52:44.984Z,75.70
2022-08-01T14:55:15.511Z,75.60
2022-08-01T14:57:44.870Z,74.50
2022-08-01T15:00:15.504Z,73.40
2022-08-01T15:02:49.824Z,72.90
2022-08-01T15:05:20.574Z,71.30
2022-08-01T15:07:57.845Z,70.10
2022-08-01T15:10:28.689Z,70.60
2022-08-01T15:12:59.600Z,71.00
2022-08-01T15:15:28.870Z,69.70
2022-08-01T15:18:00.182Z,70.60
2022-08-01T15:20:29.388Z,71.20
2022-08-01T15:22:58.141Z,71.30
2022-08-01T15:25:41.246Z,70.80
2022-08-01T15:28:11.353Z,71.00
2022-08-01T15:30:42.243Z,73.00
2022-08-01T15:33:13.689Z,74.20
2022-08-01T15:35:43.691Z,74.20
2022-08-01T15:38:12.804Z,74.50
2022-08-01T15:40:41.916Z,75.30
2022-08-01T15:43:13.338Z,74.10
2022-08-01T15:45:48.695Z,73.30
2022-08-01T15:48:19.321Z,70.90
2022-08-01T15:50:48.397Z,68.30
2022-08-01T15:53:19.700Z,65.00
2022-08-01T15:55:52.397Z,64.30
2022-08-01T15:58:21.885Z,65.00
2022-08-01T16:00:50.722Z,65.10
2022-08-01T16:03:31.760Z,67.00
2022-08-01T16:06:01.311Z,67.60
2022-08-01T16:08:30.824Z,69.50
2022-08-01T16:11:01.083Z,71.60
2022-08-01T16:13:29.947Z,73.30
2022-08-01T16:15:59.969Z,73.90
2022-08-01T16:18:33.847Z,74.50
2022-08-01T16:21:03.837Z,72.70
2022-08-01T16:23:33.284Z,69.80
2022-08-01T16:26:03.156Z,68.40
2022-08-01T16:28:32.985Z,67.60
2022-08-01T16:31:12.671Z,66.50
2022-08-01T16:33:55.302Z,66.40
2022-08-01T16:36:27.014Z,65.60
2022-08-01T16:38:56.776Z,66.00
2022-08-01T16:41:25.681Z,66.70
2022-08-01T16:43:54.865Z,69.20
2022-08-01T16:46:25.727Z,71.70
2022-08-01T16:48:56.357Z,72.30
2022-08-01T16:51:25.195Z,70.30
2022-08-01T16:53:54.389Z,67.80
2022-08-01T16:56:24.717Z,68.60
2022-08-01T16:58:53.911Z,68.50
2022-08-01T17:02:00.758Z,67.30
2022-08-01T17:04:18.936Z,66.10
2022-08-01T17:06:47.872Z,65.50
2022-08-01T17:09:16.748Z,67.40
2022-08-01T17:11:45.793Z,69.60
2022-08-01T17:14:15.258Z,71.70
2022-08-01T17:16:44.509Z,70.70
2022-08-01T17:19:18.444Z,68.30
2022-08-01T17:21:47.720Z,66.00
2022-08-01T17:24:16.816Z,65.00
2022-08-01T17:26:45.524Z,63.70
2022-08-01T17:29:14.414Z,63.20
2022-08-01T17:31:43.349Z,63.20
2022-08-01T17:34:12.348Z,63.00
2022-08-01T17:36:42.785Z,64.20
2022-08-01T17:39:13.621Z,64.90
2022-08-01T17:41:42.642Z,64.80
2022-08-01T17:44:12.161Z,65.40
2022-08-01T17:46:40.967Z,67.00
2022-08-01T17:49:10.211Z,66.30
2022-08-01T17:52:46.426Z,67.60
2022-08-01T17:59:16.746Z,70.00
2022-08-01T18:05:37.483Z,72.40
2022-08-01T18:10:01.786Z,72.60
2022-08-01T18:11:59.235Z,73.20
2022-08-01T18:15:26.049Z,74.30
2022-08-01T18:18:38.304Z,75.30
2022-08-01T18:25:16.055Z,75.20
2022-08-01T18:29:46.888Z,75.50
2022-08-01T18:32:11.918Z,76.20
2022-08-01T18:35:30.945Z,77.00
2022-08-01T18:38:44.940Z,77.50
2022-08-01T18:41:18.776Z,78.40
2022-08-01T18:43:52.608Z,78.80
2022-08-01T18:46:35.736Z,79.30
2022-08-01T18:49:05.357Z,79.80
2022-08-01T18:51:42.960Z,80.10
2022-08-01T18:54:16.966Z,80.40
2022-08-01T18:56:51.285Z,80.90
2022-08-01T19:00:30.572Z,81.70
2022-08-01T19:03:48.774Z,82.40
2022-08-01T19:07:39.723Z,83.10
2022-08-01T19:24:01.557Z,85.20
2022-08-01T19:27:27.613Z,85.50
2022-08-01T19:30:53.722Z,86.20
2022-08-01T19:34:57.421Z,86.50
2022-08-01T19:38:14.427Z,86.70
2022-08-01T19:44:06.976Z,88.40
2022-08-01T19:54:44.545Z,89.70
2022-08-01T20:02:12.603Z,90.20
2022-08-01T20:09:05.056Z,91.50
2022-08-01T20:30:24.404Z,93.60
2022-08-01T20:33:14.981Z,93.30
2022-08-01T20:43:23.008Z,93.90
2022-08-01T20:45:53.839Z,94.70
2022-08-01T20:51:57.480Z,95.00
2022-08-01T20:54:59.050Z,96.10
2022-08-01T20:57:52.811Z,97.20
2022-08-01T21:02:03.725Z,98.10
2022-08-01T21:06:49.138Z,98.90
2022-08-01T21:09:06.032Z,99.60
2022-08-01T21:11:59.047Z,99.90
2022-08-01T21:14:43.158Z,99.90
2022-08-01T21:17:58.087Z,99.90
2022-08-01T21:20:33.481Z,99.90
2022-08-01T21:23:17.507Z,99.90
2022-08-01T21:25:48.838Z,99.90
2022-08-01T21:28:18.171Z,99.90
2022-08-01T21:30:53.625Z,99.90
2022-08-01T21:33:28.409Z,99.90
2022-08-01T21:36:06.099Z,99.90
2022-08-01T21:38:37.421Z,99.90
2022-08-01T21:41:09.391Z,99.90
2022-08-01T21:43:38.918Z,99.90
2022-08-01T21:46:07.804Z,99.90
2022-08-01T21:48:38.872Z,99.90
2022-08-01T21:51:20.971Z,99.90
2022-08-01T21:53:55.621Z,99.90
2022-08-01T21:56:32.572Z,99.90
2022-08-01T21:59:10.534Z,99.90
2022-08-01T22:01:52.333Z,99.90
2022-08-01T22:04:29.499Z,99.90
2022-08-01T22:07:00.855Z,99.90
2022-08-01T22:09:31.659Z,99.90
2022-08-01T22:12:06.839Z,99.90
2022-08-01T22:14:39.504Z,99.90
2022-08-01T22:17:08.935Z,99.90
2022-08-01T22:19:45.411Z,99.90
2022-08-01T22:22:44.445Z,99.90
2022-08-01T22:25:09.275Z,99.90
2022-08-01T22:28:05.455Z,99.90
2022-08-01T22:30:31.065Z,99.90
2022-08-01T22:33:15.831Z,99.90
2022-08-01T22:35:46.823Z,99.90
2022-08-01T22:38:19.700Z,99.90
2022-08-01T22:40:51.899Z,99.90
2022-08-01T22:43:26.941Z,99.90
2022-08-01T22:46:12.488Z,99.90
2022-08-01T22:48:47.592Z,99.90
2022-08-01T22:51:33.657Z,99.90
2022-08-01T22:54:09.951Z,99.90
2022-08-01T22:56:42.915Z,99.90
2022-08-01T22:59:17.093Z,99.90
2022-08-01T23:01:50.569Z,99.90
2022-08-01T23:04:34.057Z,99.90
2022-08-01T23:07:07.507Z,99.90
2022-08-01T23:09:53.068Z,99.90
2022-08-01T23:12:26.629Z,99.90
2022-08-01T23:14:57.621Z,99.90
2022-08-01T23:17:29.946Z,99.90
2022-08-01T23:20:01.985Z,99.90
2022-08-01T23:22:36.295Z,99.90
2022-08-01T23:25:08.914Z,99.90
2022-08-01T23:27:51.776Z,99.90
2022-08-01T23:30:30.929Z,99.90
2022-08-01T23:33:00.765Z,99.90
2022-08-01T23:35:31.015Z,99.90
2022-08-01T23:38:02.186Z,99.90
2022-08-01T23:40:34.846Z,99.90
2022-08-01T23:43:05.626Z,99.90
2022-08-01T23:46:03.696Z,99.90
2022-08-01T23:48:32.494Z,99.90
2022-08-01T23:51:02.073Z,99.90
2022-08-01T23:53:32.188Z,99.90
2022-08-01T23:56:03.800Z,99.90
2022-08-01T23:58:34.337Z,99.90
